sensor_id;sensor_type;location;lat;lon;timestamp;temperature;humidity
59075;DHT22;44860;53.020;6.738;2022-08-01T00:00:10;18.30;99.90
59075;DHT22;44860;53.020;6.738;2022-08-01T00:02:39;18.30;99.90
59075;DHT22;44860;53.020;6.738;2022-08-01T00:05:06;18.30;99.90
59075;DHT22;44860;53.020;6.738;2022-08-01T00:07:32;18.30;99.90
59075;DHT22;44860;53.020;6.738;2022-08-01T00:09:58;18.30;99.90
59075;DHT22;44860;53.020;6.738;2022-08-01T00:12:24;18.30;99.90
59075;DHT22;44860;53.020;6.738;2022-08-01T00:14:50;18.30;99.90
59075;DHT22;44860;53.020;6.738;2022-08-01T00:17:15;18.20;99.90
59075;DHT22;44860;53.020;6.738;2022-08-01T00:19:41;18.30;99.90
59075;DHT22;44860;53.020;6.738;2022-08-01T00:22:06;18.30;99.90
59075;DHT22;44860;53.020;6.738;2022-08-01T00:24:32;18.20;99.90
59075;DHT22;44860;53.020;6.738;2022-08-01T00:26:58;18.30;99.90
59075;DHT22;44860;53.020;6.738;2022-08-01T00:29:23;18.30;99.90
59075;DHT22;44860;53.020;6.738;2022-08-01T00:31:49;18.20;99.90
59075;DHT22;44860;53.020;6.738;2022-08-01T00:34:15;18.20;99.90
59075;DHT22;44860;53.020;6.738;2022-08-01T00:36:40;18.20;99.90
59075;DHT22;44860;53.020;6.738;2022-08-01T00:39:06;18.20;99.90
59075;DHT22;44860;53.020;6.738;2022-08-01T00:41:31;18.20;99.90
59075;DHT22;44860;53.020;6.738;2022-08-01T00:43:57;18.20;99.90
59075;DHT22;44860;53.020;6.738;2022-08-01T00:46:23;18.20;99.90
59075;DHT22;44860;53.020;6.738;2022-08-01T00:48:48;18.20;99.90
59075;DHT22;44860;53.020;6.738;2022-08-01T00:51:14;18.20;99.90
59075;DHT22;44860;53.020;6.738;2022-08-01T00:53:40;18.20;99.90
59075;DHT22;44860;53.020;6.738;2022-08-01T00:56:07;18.20;99.90
59075;DHT22;44860;53.020;6.738;2022-08-01T00:58:33;18.20;99.90
59075;DHT22;44860;53.020;6.738;2022-08-01T01:00:59;18.20;99.90
59075;DHT22;44860;53.020;6.738;2022-08-01T01:03:26;18.20;99.90
59075;DHT22;44860;53.020;6.738;2022-08-01T01:08:41;18.10;99.90
59075;DHT22;44860;53.020;6.738;2022-08-01T01:11:22;18.10;99.90
59075;DHT22;44860;53.020;6.738;2022-08-01T01:13:56;18.20;99.90
59075;DHT22;44860;53.020;6.738;2022-08-01T01:16:23;18.10;99.90
59075;DHT22;44860;53.020;6.738;2022-08-01T01:18:54;18.10;99.90
59075;DHT22;44860;53.020;6.738;2022-08-01T01:24:45;18.10;99.90
59075;DHT22;44860;53.020;6.738;2022-08-01T01:27:39;18.10;99.90
59075;DHT22;44860;53.020;6.738;2022-08-01T01:30:07;18.10;99.90
59075;DHT22;44860;53.020;6.738;2022-08-01T01:32:39;18.20;99.90
59075;DHT22;44860;53.020;6.738;2022-08-01T01:35:09;18.10;99.90
59075;DHT22;44860;53.020;6.738;2022-08-01T01:37:38;18.10;99.90
59075;DHT22;44860;53.020;6.738;2022-08-01T01:40:05;18.10;99.90
59075;DHT22;44860;53.020;6.738;2022-08-01T01:42:32;18.10;99.90
59075;DHT22;44860;53.020;6.738;2022-08-01T01:44:58;18.10;99.90
59075;DHT22;44860;53.020;6.738;2022-08-01T01:47:26;18.10;99.90
59075;DHT22;44860;53.020;6.738;2022-08-01T01:49:54;18.10;99.90
59075;DHT22;44860;53.020;6.738;2022-08-01T01:52:21;18.10;99.90
59075;DHT22;44860;53.020;6.738;2022-08-01T01:54:50;18.10;99.90
59075;DHT22;44860;53.020;6.738;2022-08-01T01:57:18;18.10;99.90
59075;DHT22;44860;53.020;6.738;2022-08-01T01:59:45;18.10;99.90
59075;DHT22;44860;53.020;6.738;2022-08-01T02:02:12;18.10;99.90
59075;DHT22;44860;53.020;6.738;2022-08-01T02:04:42;18.10;99.90
59075;DHT22;44860;53.020;6.738;2022-08-01T02:07:10;18.10;99.90
59075;DHT22;44860;53.020;6.738;2022-08-01T02:09:37;18.10;99.90
59075;DHT22;44860;53.020;6.738;2022-08-01T02:12:05;18.10;99.90
59075;DHT22;44860;53.020;6.738;2022-08-01T02:14:33;18.10;99.90
59075;DHT22;44860;53.020;6.738;2022-08-01T02:17:00;18.10;99.90
59075;DHT22;44860;53.020;6.738;2022-08-01T02:19:29;18.10;99.90
59075;DHT22;44860;53.020;6.738;2022-08-01T02:22:00;18.10;99.90
59075;DHT22;44860;53.020;6.738;2022-08-01T02:27:10;18.10;99.90
59075;DHT22;44860;53.020;6.738;2022-08-01T02:29:59;18.00;99.90
59075;DHT22;44860;53.020;6.738;2022-08-01T02:32:30;18.00;99.90
59075;DHT22;44860;53.020;6.738;2022-08-01T02:34:57;18.00;99.90
59075;DHT22;44860;53.020;6.738;2022-08-01T02:37:26;18.00;99.90
59075;DHT22;44860;53.020;6.738;2022-08-01T02:39:54;18.00;99.90
59075;DHT22;44860;53.020;6.738;2022-08-01T02:42:22;17.90;99.90
59075;DHT22;44860;53.020;6.738;2022-08-01T02:44:49;17.90;99.90
59075;DHT22;44860;53.020;6.738;2022-08-01T02:47:19;17.90;99.90
59075;DHT22;44860;53.020;6.738;2022-08-01T02:49:46;17.90;99.90
59075;DHT22;44860;53.020;6.738;2022-08-01T02:52:15;17.90;99.90
59075;DHT22;44860;53.020;6.738;2022-08-01T02:54:43;17.90;99.90
59075;DHT22;44860;53.020;6.738;2022-08-01T02:57:10;17.90;99.90
59075;DHT22;44860;53.020;6.738;2022-08-01T02:59:37;17.90;99.90
59075;DHT22;44860;53.020;6.738;2022-08-01T03:02:05;17.90;99.90
59075;DHT22;44860;53.020;6.738;2022-08-01T03:04:34;17.80;99.90
59075;DHT22;44860;53.020;6.738;2022-08-01T03:07:03;17.80;99.90
59075;DHT22;44860;53.020;6.738;2022-08-01T03:09:31;17.80;99.90
59075;DHT22;44860;53.020;6.738;2022-08-01T03:12:01;17.80;99.90
59075;DHT22;44860;53.020;6.738;2022-08-01T03:14:28;17.80;99.90
59075;DHT22;44860;53.020;6.738;2022-08-01T03:16:56;17.80;99.90
59075;DHT22;44860;53.020;6.738;2022-08-01T03:19:24;17.70;99.90
59075;DHT22;44860;53.020;6.738;2022-08-01T03:21:52;17.80;99.90
59075;DHT22;44860;53.020;6.738;2022-08-01T03:24:19;17.70;99.90
59075;DHT22;44860;53.020;6.738;2022-08-01T03:26:47;17.70;99.90
59075;DHT22;44860;53.020;6.738;2022-08-01T03:29:18;17.70;99.90
59075;DHT22;44860;53.020;6.738;2022-08-01T03:31:46;17.70;99.90
59075;DHT22;44860;53.020;6.738;2022-08-01T03:34:13;17.70;99.90
59075;DHT22;44860;53.020;6.738;2022-08-01T03:37:01;17.70;99.90
59075;DHT22;44860;53.020;6.738;2022-08-01T03:39:34;17.70;99.90
59075;DHT22;44860;53.020;6.738;2022-08-01T03:42:09;17.70;99.90
59075;DHT22;44860;53.020;6.738;2022-08-01T03:44:37;17.70;99.90
59075;DHT22;44860;53.020;6.738;2022-08-01T03:47:08;17.70;99.90
59075;DHT22;44860;53.020;6.738;2022-08-01T03:49:37;17.60;99.90
59075;DHT22;44860;53.020;6.738;2022-08-01T03:52:07;17.60;99.90
59075;DHT22;44860;53.020;6.738;2022-08-01T03:54:36;17.60;99.90
59075;DHT22;44860;53.020;6.738;2022-08-01T03:57:04;17.60;99.90
59075;DHT22;44860;53.020;6.738;2022-08-01T03:59:30;17.60;99.90
59075;DHT22;44860;53.020;6.738;2022-08-01T04:01:57;17.60;99.90
59075;DHT22;44860;53.020;6.738;2022-08-01T04:04:23;17.60;99.90
59075;DHT22;44860;53.020;6.738;2022-08-01T04:06:49;17.60;99.90
59075;DHT22;44860;53.020;6.738;2022-08-01T04:09:20;17.50;99.90
59075;DHT22;44860;53.020;6.738;2022-08-01T04:11:46;17.50;99.90
59075;DHT22;44860;53.020;6.738;2022-08-01T04:14:12;17.50;99.90
59075;DHT22;44860;53.020;6.738;2022-08-01T04:16:38;17.50;99.90
59075;DHT22;44860;53.020;6.738;2022-08-01T04:19:04;17.40;99.90
59075;DHT22;44860;53.020;6.738;2022-08-01T04:21:34;17.40;99.90
59075;DHT22;44860;53.020;6.738;2022-08-01T04:24:12;17.40;99.90
59075;DHT22;44860;53.020;6.738;2022-08-01T04:26:39;17.30;99.90
59075;DHT22;44860;53.020;6.738;2022-08-01T04:29:08;17.30;99.90
59075;DHT22;44860;53.020;6.738;2022-08-01T04:31:36;17.30;99.90
59075;DHT22;44860;53.020;6.738;2022-08-01T04:34:04;17.30;99.90
59075;DHT22;44860;53.020;6.738;2022-08-01T04:36:33;17.30;99.90
59075;DHT22;44860;53.020;6.738;2022-08-01T04:39:00;17.20;99.90
59075;DHT22;44860;53.020;6.738;2022-08-01T04:41:28;17.20;99.90
59075;DHT22;44860;53.020;6.738;2022-08-01T04:43:55;17.20;99.90
59075;DHT22;44860;53.020;6.738;2022-08-01T04:46:24;17.20;99.90
59075;DHT22;44860;53.020;6.738;2022-08-01T04:48:51;17.20;99.90
59075;DHT22;44860;53.020;6.738;2022-08-01T04:51:17;17.10;99.90
59075;DHT22;44860;53.020;6.738;2022-08-01T04:53:47;17.10;99.90
59075;DHT22;44860;53.020;6.738;2022-08-01T04:56:13;17.10;99.90
59075;DHT22;44860;53.020;6.738;2022-08-01T04:58:42;17.10;99.90
59075;DHT22;44860;53.020;6.738;2022-08-01T05:01:09;17.10;99.90
59075;DHT22;44860;53.020;6.738;2022-08-01T05:03:35;17.10;99.90
59075;DHT22;44860;53.020;6.738;2022-08-01T05:06:01;17.10;99.90
59075;DHT22;44860;53.020;6.738;2022-08-01T05:08:27;17.10;99.90
59075;DHT22;44860;53.020;6.738;2022-08-01T05:10:52;17.10;99.90
59075;DHT22;44860;53.020;6.738;2022-08-01T05:13:19;17.10;99.90
59075;DHT22;44860;53.020;6.738;2022-08-01T05:15:45;17.10;99.90
59075;DHT22;44860;53.020;6.738;2022-08-01T05:18:10;17.10;99.90
59075;DHT22;44860;53.020;6.738;2022-08-01T05:20:37;17.00;99.90
59075;DHT22;44860;53.020;6.738;2022-08-01T05:23:03;17.10;99.90
59075;DHT22;44860;53.020;6.738;2022-08-01T05:25:29;17.00;99.90
59075;DHT22;44860;53.020;6.738;2022-08-01T05:27:55;17.00;99.90
59075;DHT22;44860;53.020;6.738;2022-08-01T05:30:20;17.00;99.90
59075;DHT22;44860;53.020;6.738;2022-08-01T05:32:46;17.00;99.90
59075;DHT22;44860;53.020;6.738;2022-08-01T05:35:12;17.00;99.90
59075;DHT22;44860;53.020;6.738;2022-08-01T05:37:37;17.00;99.90
59075;DHT22;44860;53.020;6.738;2022-08-01T05:40:04;17.00;99.90
59075;DHT22;44860;53.020;6.738;2022-08-01T05:42:30;17.00;99.90
59075;DHT22;44860;53.020;6.738;2022-08-01T05:44:55;17.00;99.90
59075;DHT22;44860;53.020;6.738;2022-08-01T05:47:21;17.00;99.90
59075;DHT22;44860;53.020;6.738;2022-08-01T05:49:47;16.90;99.90
59075;DHT22;44860;53.020;6.738;2022-08-01T05:52:12;16.90;99.90
59075;DHT22;44860;53.020;6.738;2022-08-01T05:54:39;16.90;99.90
59075;DHT22;44860;53.020;6.738;2022-08-01T05:57:05;16.80;99.90
59075;DHT22;44860;53.020;6.738;2022-08-01T05:59:31;16.90;99.90
59075;DHT22;44860;53.020;6.738;2022-08-01T06:01:57;16.90;99.90
59075;DHT22;44860;53.020;6.738;2022-08-01T06:04:23;16.90;99.90
59075;DHT22;44860;53.020;6.738;2022-08-01T06:06:48;16.90;99.90
59075;DHT22;44860;53.020;6.738;2022-08-01T06:09:14;16.90;99.90
59075;DHT22;44860;53.020;6.738;2022-08-01T06:11:40;16.90;99.90
59075;DHT22;44860;53.020;6.738;2022-08-01T06:14:06;16.90;99.90
59075;DHT22;44860;53.020;6.738;2022-08-01T06:16:32;16.90;99.90
59075;DHT22;44860;53.020;6.738;2022-08-01T06:18:57;16.90;99.90
59075;DHT22;44860;53.020;6.738;2022-08-01T06:21:23;16.90;99.90
59075;DHT22;44860;53.020;6.738;2022-08-01T06:23:48;16.90;99.90
59075;DHT22;44860;53.020;6.738;2022-08-01T06:26:17;16.90;99.90
59075;DHT22;44860;53.020;6.738;2022-08-01T06:28:43;17.00;99.90
59075;DHT22;44860;53.020;6.738;2022-08-01T06:31:09;17.00;99.90
59075;DHT22;44860;53.020;6.738;2022-08-01T06:33:36;17.00;99.90
59075;DHT22;44860;53.020;6.738;2022-08-01T06:36:03;17.00;99.90
59075;DHT22;44860;53.020;6.738;2022-08-01T06:38:28;17.00;99.90
59075;DHT22;44860;53.020;6.738;2022-08-01T06:40:54;17.00;99.90
59075;DHT22;44860;53.020;6.738;2022-08-01T06:43:19;17.00;99.90
59075;DHT22;44860;53.020;6.738;2022-08-01T06:45:46;17.00;99.90
59075;DHT22;44860;53.020;6.738;2022-08-01T06:48:12;17.00;99.90
59075;DHT22;44860;53.020;6.738;2022-08-01T06:50:37;17.00;99.90
59075;DHT22;44860;53.020;6.738;2022-08-01T06:53:03;17.00;99.90
59075;DHT22;44860;53.020;6.738;2022-08-01T06:55:29;17.00;99.90
59075;DHT22;44860;53.020;6.738;2022-08-01T06:57:55;17.00;99.90
59075;DHT22;44860;53.020;6.738;2022-08-01T07:00:22;17.00;99.90
59075;DHT22;44860;53.020;6.738;2022-08-01T07:02:49;17.00;99.90
59075;DHT22;44860;53.020;6.738;2022-08-01T07:05:15;17.00;99.90
59075;DHT22;44860;53.020;6.738;2022-08-01T07:07:40;17.10;99.90
59075;DHT22;44860;53.020;6.738;2022-08-01T07:10:06;17.10;99.90
59075;DHT22;44860;53.020;6.738;2022-08-01T07:12:34;17.10;99.90
59075;DHT22;44860;53.020;6.738;2022-08-01T07:15:03;17.10;99.90
59075;DHT22;44860;53.020;6.738;2022-08-01T07:17:29;17.10;99.90
59075;DHT22;44860;53.020;6.738;2022-08-01T07:19:54;17.10;99.90
59075;DHT22;44860;53.020;6.738;2022-08-01T07:22:20;17.10;99.90
59075;DHT22;44860;53.020;6.738;2022-08-01T07:24:46;17.10;99.90
59075;DHT22;44860;53.020;6.738;2022-08-01T07:27:12;17.20;99.90
59075;DHT22;44860;53.020;6.738;2022-08-01T07:29:37;17.20;99.90
59075;DHT22;44860;53.020;6.738;2022-08-01T07:32:03;17.20;99.90
59075;DHT22;44860;53.020;6.738;2022-08-01T07:34:29;17.20;99.90
59075;DHT22;44860;53.020;6.738;2022-08-01T07:36:55;17.20;99.90
59075;DHT22;44860;53.020;6.738;2022-08-01T07:39:20;17.20;99.90
59075;DHT22;44860;53.020;6.738;2022-08-01T07:41:46;17.20;99.90
59075;DHT22;44860;53.020;6.738;2022-08-01T07:44:12;17.20;99.90
59075;DHT22;44860;53.020;6.738;2022-08-01T07:46:37;17.20;99.90
59075;DHT22;44860;53.020;6.738;2022-08-01T07:49:03;17.20;99.90
59075;DHT22;44860;53.020;6.738;2022-08-01T07:51:28;17.30;99.90
59075;DHT22;44860;53.020;6.738;2022-08-01T07:53:54;17.30;99.90
59075;DHT22;44860;53.020;6.738;2022-08-01T07:56:20;17.30;99.90
59075;DHT22;44860;53.020;6.738;2022-08-01T07:58:45;17.30;99.90
59075;DHT22;44860;53.020;6.738;2022-08-01T08:01:12;17.40;99.90
59075;DHT22;44860;53.020;6.738;2022-08-01T08:03:37;17.40;99.90
59075;DHT22;44860;53.020;6.738;2022-08-01T08:06:03;17.40;99.90
59075;DHT22;44860;53.020;6.738;2022-08-01T08:08:29;17.40;99.90
59075;DHT22;44860;53.020;6.738;2022-08-01T08:10:55;17.40;99.90
59075;DHT22;44860;53.020;6.738;2022-08-01T08:13:21;17.50;99.90
59075;DHT22;44860;53.020;6.738;2022-08-01T08:15:47;17.50;99.90
59075;DHT22;44860;53.020;6.738;2022-08-01T08:18:12;17.50;99.90
59075;DHT22;44860;53.020;6.738;2022-08-01T08:20:38;17.60;99.90
59075;DHT22;44860;53.020;6.738;2022-08-01T08:23:04;17.60;99.90
59075;DHT22;44860;53.020;6.738;2022-08-01T08:25:49;17.70;99.90
59075;DHT22;44860;53.020;6.738;2022-08-01T08:28:15;17.70;99.90
59075;DHT22;44860;53.020;6.738;2022-08-01T08:30:40;17.70;99.90
59075;DHT22;44860;53.020;6.738;2022-08-01T08:33:06;17.80;99.90
59075;DHT22;44860;53.020;6.738;2022-08-01T08:35:32;17.80;99.90
59075;DHT22;44860;53.020;6.738;2022-08-01T08:37:57;17.90;99.90
59075;DHT22;44860;53.020;6.738;2022-08-01T08:40:24;18.00;99.90
59075;DHT22;44860;53.020;6.738;2022-08-01T08:42:53;18.10;99.90
59075;DHT22;44860;53.020;6.738;2022-08-01T08:45:18;18.20;99.90
59075;DHT22;44860;53.020;6.738;2022-08-01T08:47:45;18.30;99.90
59075;DHT22;44860;53.020;6.738;2022-08-01T08:50:14;18.30;99.90
59075;DHT22;44860;53.020;6.738;2022-08-01T08:52:40;18.30;99.90
59075;DHT22;44860;53.020;6.738;2022-08-01T08:55:07;18.40;99.90
59075;DHT22;44860;53.020;6.738;2022-08-01T08:57:33;18.50;99.90
59075;DHT22;44860;53.020;6.738;2022-08-01T09:00:00;18.50;99.90
59075;DHT22;44860;53.020;6.738;2022-08-01T09:02:25;18.60;99.90
59075;DHT22;44860;53.020;6.738;2022-08-01T09:04:51;18.60;99.90
59075;DHT22;44860;53.020;6.738;2022-08-01T09:07:17;18.70;99.90
59075;DHT22;44860;53.020;6.738;2022-08-01T09:09:43;18.70;99.90
59075;DHT22;44860;53.020;6.738;2022-08-01T09:12:09;18.70;99.90
59075;DHT22;44860;53.020;6.738;2022-08-01T09:14:44;18.70;99.90
59075;DHT22;44860;53.020;6.738;2022-08-01T09:17:10;18.70;99.90
59075;DHT22;44860;53.020;6.738;2022-08-01T09:19:49;18.70;99.90
59075;DHT22;44860;53.020;6.738;2022-08-01T09:22:23;18.70;99.90
59075;DHT22;44860;53.020;6.738;2022-08-01T09:25:03;18.80;99.90
59075;DHT22;44860;53.020;6.738;2022-08-01T09:27:29;18.80;99.90
59075;DHT22;44860;53.020;6.738;2022-08-01T09:30:10;18.90;99.90
59075;DHT22;44860;53.020;6.738;2022-08-01T09:32:37;18.90;99.90
59075;DHT22;44860;53.020;6.738;2022-08-01T09:35:25;19.00;99.90
59075;DHT22;44860;53.020;6.738;2022-08-01T09:37:50;19.10;99.90
59075;DHT22;44860;53.020;6.738;2022-08-01T09:40:16;19.20;99.90
59075;DHT22;44860;53.020;6.738;2022-08-01T09:42:42;19.10;99.90
59075;DHT22;44860;53.020;6.738;2022-08-01T09:45:08;19.10;99.90
59075;DHT22;44860;53.020;6.738;2022-08-01T09:47:38;19.20;99.90
59075;DHT22;44860;53.020;6.738;2022-08-01T09:50:04;19.20;99.90
59075;DHT22;44860;53.020;6.738;2022-08-01T09:52:31;19.30;99.90
59075;DHT22;44860;53.020;6.738;2022-08-01T09:54:57;19.40;99.90
59075;DHT22;44860;53.020;6.738;2022-08-01T09:57:23;19.40;99.90
59075;DHT22;44860;53.020;6.738;2022-08-01T09:59:51;19.50;99.90
59075;DHT22;44860;53.020;6.738;2022-08-01T10:02:29;19.60;99.90
59075;DHT22;44860;53.020;6.738;2022-08-01T10:04:55;19.60;99.90
59075;DHT22;44860;53.020;6.738;2022-08-01T10:07:21;19.60;99.90
59075;DHT22;44860;53.020;6.738;2022-08-01T10:09:47;19.70;99.90
59075;DHT22;44860;53.020;6.738;2022-08-01T10:12:21;19.60;99.90
59075;DHT22;44860;53.020;6.738;2022-08-01T10:14:51;19.60;99.90
59075;DHT22;44860;53.020;6.738;2022-08-01T10:17:20;19.60;99.90
59075;DHT22;44860;53.020;6.738;2022-08-01T10:19:49;19.60;99.90
59075;DHT22;44860;53.020;6.738;2022-08-01T10:22:22;19.60;99.90
59075;DHT22;44860;53.020;6.738;2022-08-01T10:24:50;19.70;99.90
59075;DHT22;44860;53.020;6.738;2022-08-01T10:27:20;19.70;99.90
59075;DHT22;44860;53.020;6.738;2022-08-01T10:30:00;19.70;99.90
59075;DHT22;44860;53.020;6.738;2022-08-01T10:32:34;19.80;99.90
59075;DHT22;44860;53.020;6.738;2022-08-01T10:35:02;19.80;99.90
59075;DHT22;44860;53.020;6.738;2022-08-01T10:37:28;19.90;99.90
59075;DHT22;44860;53.020;6.738;2022-08-01T10:39:55;19.90;99.90
59075;DHT22;44860;53.020;6.738;2022-08-01T10:42:22;20.00;99.90
59075;DHT22;44860;53.020;6.738;2022-08-01T10:44:51;20.00;99.90
59075;DHT22;44860;53.020;6.738;2022-08-01T10:47:40;20.00;99.90
59075;DHT22;44860;53.020;6.738;2022-08-01T10:50:21;20.00;99.90
59075;DHT22;44860;53.020;6.738;2022-08-01T10:53:17;19.90;99.90
59075;DHT22;44860;53.020;6.738;2022-08-01T10:56:00;20.00;99.90
59075;DHT22;44860;53.020;6.738;2022-08-01T10:58:32;20.00;99.90
59075;DHT22;44860;53.020;6.738;2022-08-01T11:01:25;20.00;99.90
59075;DHT22;44860;53.020;6.738;2022-08-01T11:03:56;20.10;99.90
59075;DHT22;44860;53.020;6.738;2022-08-01T11:09:24;20.10;99.90
59075;DHT22;44860;53.020;6.738;2022-08-01T11:12:05;20.10;99.90
59075;DHT22;44860;53.020;6.738;2022-08-01T11:14:34;20.20;99.90
59075;DHT22;44860;53.020;6.738;2022-08-01T11:20:27;20.30;99.90
59075;DHT22;44860;53.020;6.738;2022-08-01T11:30:54;20.60;99.90
59075;DHT22;44860;53.020;6.738;2022-08-01T11:38:39;20.60;98.90
59075;DHT22;44860;53.020;6.738;2022-08-01T11:41:12;20.60;99.90
59075;DHT22;44860;53.020;6.738;2022-08-01T11:44:01;20.60;97.90
59075;DHT22;44860;53.020;6.738;2022-08-01T11:52:16;20.60;96.60
59075;DHT22;44860;53.020;6.738;2022-08-01T11:54:50;20.70;93.10
59075;DHT22;44860;53.020;6.738;2022-08-01T11:57:26;20.70;94.70
59075;DHT22;44860;53.020;6.738;2022-08-01T11:59:54;20.70;95.60
59075;DHT22;44860;53.020;6.738;2022-08-01T12:02:29;20.80;94.70
59075;DHT22;44860;53.020;6.738;2022-08-01T12:04:58;20.90;93.80
59075;DHT22;44860;53.020;6.738;2022-08-01T12:07:26;20.90;94.30
59075;DHT22;44860;53.020;6.738;2022-08-01T12:09:57;20.90;93.10
59075;DHT22;44860;53.020;6.738;2022-08-01T12:15:08;20.80;91.20
59075;DHT22;44860;53.020;6.738;2022-08-01T12:20:04;20.80;91.40
59075;DHT22;44860;53.020;6.738;2022-08-01T12:22:30;20.80;90.60
59075;DHT22;44860;53.020;6.738;2022-08-01T12:24:56;20.90;89.20
59075;DHT22;44860;53.020;6.738;2022-08-01T12:27:30;20.90;84.80
59075;DHT22;44860;53.020;6.738;2022-08-01T12:29:57;20.90;89.30
59075;DHT22;44860;53.020;6.738;2022-08-01T12:32:29;21.00;90.50
59075;DHT22;44860;53.020;6.738;2022-08-01T12:35:12;21.10;90.90
59075;DHT22;44860;53.020;6.738;2022-08-01T12:37:41;21.20;81.50
59075;DHT22;44860;53.020;6.738;2022-08-01T12:40:20;21.30;81.10
59075;DHT22;44860;53.020;6.738;2022-08-01T12:42:52;21.40;77.10
59075;DHT22;44860;53.020;6.738;2022-08-01T12:45:21;21.30;74.40
59075;DHT22;44860;53.020;6.738;2022-08-01T12:47:47;21.40;78.20
59075;DHT22;44860;53.020;6.738;2022-08-01T12:50:19;21.40;74.60
59075;DHT22;44860;53.020;6.738;2022-08-01T12:52:46;21.40;74.70
59075;DHT22;44860;53.020;6.738;2022-08-01T12:55:14;21.40;73.50
59075;DHT22;44860;53.020;6.738;2022-08-01T12:58:04;21.50;74.00
59075;DHT22;44860;53.020;6.738;2022-08-01T13:00:29;21.50;73.70
59075;DHT22;44860;53.020;6.738;2022-08-01T13:03:06;21.60;70.00
59075;DHT22;44860;53.020;6.738;2022-08-01T13:08:14;21.60;69.80
59075;DHT22;44860;53.020;6.738;2022-08-01T13:10:41;21.60;69.70
59075;DHT22;44860;53.020;6.738;2022-08-01T13:13:07;21.60;68.60
59075;DHT22;44860;53.020;6.738;2022-08-01T13:15:35;21.80;71.00
59075;DHT22;44860;53.020;6.738;2022-08-01T13:18:21;21.80;67.10
59075;DHT22;44860;53.020;6.738;2022-08-01T13:20:47;21.90;61.90
59075;DHT22;44860;53.020;6.738;2022-08-01T13:23:15;22.00;61.70
59075;DHT22;44860;53.020;6.738;2022-08-01T13:26:07;22.00;61.40
59075;DHT22;44860;53.020;6.738;2022-08-01T13:28:33;22.10;60.60
59075;DHT22;44860;53.020;6.738;2022-08-01T13:31:04;22.10;58.00
59075;DHT22;44860;53.020;6.738;2022-08-01T13:33:47;22.20;58.30
59075;DHT22;44860;53.020;6.738;2022-08-01T13:36:14;22.20;58.00
59075;DHT22;44860;53.020;6.738;2022-08-01T13:38:41;22.20;56.80
59075;DHT22;44860;53.020;6.738;2022-08-01T13:41:26;22.10;56.20
59075;DHT22;44860;53.020;6.738;2022-08-01T13:43:52;22.00;55.00
59075;DHT22;44860;53.020;6.738;2022-08-01T13:46:18;22.10;59.40
59075;DHT22;44860;53.020;6.738;2022-08-01T13:48:44;22.20;56.50
59075;DHT22;44860;53.020;6.738;2022-08-01T13:51:10;22.30;55.10
59075;DHT22;44860;53.020;6.738;2022-08-01T13:53:35;22.30;54.60
59075;DHT22;44860;53.020;6.738;2022-08-01T13:56:03;22.30;54.10
59075;DHT22;44860;53.020;6.738;2022-08-01T13:58:29;22.40;54.30
59075;DHT22;44860;53.020;6.738;2022-08-01T14:00:55;22.20;51.60
59075;DHT22;44860;53.020;6.738;2022-08-01T14:03:21;22.30;54.00
59075;DHT22;44860;53.020;6.738;2022-08-01T14:05:48;22.20;51.50
59075;DHT22;44860;53.020;6.738;2022-08-01T14:08:16;22.20;52.40
59075;DHT22;44860;53.020;6.738;2022-08-01T14:10:42;22.20;51.70
59075;DHT22;44860;53.020;6.738;2022-08-01T14:13:08;22.10;51.80
59075;DHT22;44860;53.020;6.738;2022-08-01T14:15:33;22.20;52.00
59075;DHT22;44860;53.020;6.738;2022-08-01T14:17:59;22.20;52.50
59075;DHT22;44860;53.020;6.738;2022-08-01T14:20:25;22.20;51.70
59075;DHT22;44860;53.020;6.738;2022-08-01T14:22:51;22.20;51.40
59075;DHT22;44860;53.020;6.738;2022-08-01T14:25:17;22.20;49.80
59075;DHT22;44860;53.020;6.738;2022-08-01T14:27:44;22.30;50.50
59075;DHT22;44860;53.020;6.738;2022-08-01T14:30:11;22.40;49.90
59075;DHT22;44860;53.020;6.738;2022-08-01T14:32:37;22.40;52.00
59075;DHT22;44860;53.020;6.738;2022-08-01T14:35:04;22.50;52.50
59075;DHT22;44860;53.020;6.738;2022-08-01T14:37:31;22.60;51.60
59075;DHT22;44860;53.020;6.738;2022-08-01T14:39:58;22.60;49.60
59075;DHT22;44860;53.020;6.738;2022-08-01T14:42:23;22.60;48.60
59075;DHT22;44860;53.020;6.738;2022-08-01T14:44:49;22.60;47.60
59075;DHT22;44860;53.020;6.738;2022-08-01T14:47:15;22.50;47.40
59075;DHT22;44860;53.020;6.738;2022-08-01T14:49:41;22.50;48.50
59075;DHT22;44860;53.020;6.738;2022-08-01T14:52:06;22.60;50.20
59075;DHT22;44860;53.020;6.738;2022-08-01T14:54:32;22.70;50.20
59075;DHT22;44860;53.020;6.738;2022-08-01T14:56:58;22.70;49.40
59075;DHT22;44860;53.020;6.738;2022-08-01T14:59:23;22.70;49.60
59075;DHT22;44860;53.020;6.738;2022-08-01T15:01:49;22.60;48.40
59075;DHT22;44860;53.020;6.738;2022-08-01T15:04:15;22.70;48.20
59075;DHT22;44860;53.020;6.738;2022-08-01T15:06:43;22.60;49.20
59075;DHT22;44860;53.020;6.738;2022-08-01T15:09:08;22.70;49.10
59075;DHT22;44860;53.020;6.738;2022-08-01T15:11:34;22.70;49.40
59075;DHT22;44860;53.020;6.738;2022-08-01T15:13:59;22.80;48.90
59075;DHT22;44860;53.020;6.738;2022-08-01T15:16:44;22.80;48.10
59075;DHT22;44860;53.020;6.738;2022-08-01T15:19:09;22.90;49.70
59075;DHT22;44860;53.020;6.738;2022-08-01T15:21:35;22.90;48.00
59075;DHT22;44860;53.020;6.738;2022-08-01T15:24:01;22.80;48.90
59075;DHT22;44860;53.020;6.738;2022-08-01T15:26:26;22.80;48.30
59075;DHT22;44860;53.020;6.738;2022-08-01T15:28:53;22.80;47.00
59075;DHT22;44860;53.020;6.738;2022-08-01T15:31:19;22.90;46.90
59075;DHT22;44860;53.020;6.738;2022-08-01T15:33:44;22.90;46.50
59075;DHT22;44860;53.020;6.738;2022-08-01T15:36:10;22.90;47.60
59075;DHT22;44860;53.020;6.738;2022-08-01T15:38:36;22.90;48.50
59075;DHT22;44860;53.020;6.738;2022-08-01T15:41:01;22.90;48.50
59075;DHT22;44860;53.020;6.738;2022-08-01T15:43:27;22.90;47.50
59075;DHT22;44860;53.020;6.738;2022-08-01T15:45:53;23.00;47.30
59075;DHT22;44860;53.020;6.738;2022-08-01T15:48:19;23.00;46.80
59075;DHT22;44860;53.020;6.738;2022-08-01T15:50:45;22.90;47.30
59075;DHT22;44860;53.020;6.738;2022-08-01T15:53:10;22.90;48.00
59075;DHT22;44860;53.020;6.738;2022-08-01T15:55:37;22.90;47.10
59075;DHT22;44860;53.020;6.738;2022-08-01T15:58:03;22.90;47.10
59075;DHT22;44860;53.020;6.738;2022-08-01T16:00:29;22.90;47.30
59075;DHT22;44860;53.020;6.738;2022-08-01T16:02:55;22.80;47.20
59075;DHT22;44860;53.020;6.738;2022-08-01T16:05:22;22.80;47.80
59075;DHT22;44860;53.020;6.738;2022-08-01T16:07:48;22.80;47.20
59075;DHT22;44860;53.020;6.738;2022-08-01T16:10:13;22.70;46.00
59075;DHT22;44860;53.020;6.738;2022-08-01T16:12:39;22.70;47.00
59075;DHT22;44860;53.020;6.738;2022-08-01T16:15:05;22.70;47.00
59075;DHT22;44860;53.020;6.738;2022-08-01T16:17:31;22.80;48.20